createdAt,value
2022-09-17T00:07:03.684Z,13.17
2022-09-17T00:17:06.336Z,13.30
2022-09-17T00:27:10.345Z,13.00
2022-09-17T00:37:13.388Z,12.71
2022-09-17T00:47:25.489Z,12.48
2022-09-17T00:57:29.060Z,12.43
2022-09-17T01:07:45.159Z,12.49
2022-09-17T01:17:59.613Z,12.45
2022-09-17T01:28:22.657Z,12.28
2022-09-17T01:38:31.554Z,12.15
2022-09-17T01:48:38.442Z,11.99
2022-09-17T01:58:46.980Z,12.01
2022-09-17T02:08:54.904Z,12.33
2022-09-17T02:19:04.686Z,12.69
2022-09-17T02:29:10.991Z,12.28
2022-09-17T02:39:15.033Z,12.21
2022-09-17T02:49:30.918Z,12.18
2022-09-17T02:59:41.808Z,12.04
2022-09-17T03:09:44.451Z,12.00
2022-09-17T03:19:48.466Z,11.90
2022-09-17T03:29:51.111Z,11.73
2022-09-17T03:39:55.186Z,11.64
2022-09-17T03:49:57.975Z,11.57
2022-09-17T04:00:02.467Z,11.47
2022-09-17T04:10:06.356Z,11.29
2022-09-17T04:20:11.060Z,11.16
2022-09-17T04:30:14.050Z,11.18
2022-09-17T04:40:18.336Z,11.16
2022-09-17T04:50:21.872Z,11.05
2022-09-17T05:00:26.805Z,11.03
2022-09-17T05:10:29.573Z,10.55
2022-09-17T05:20:33.562Z,10.71
2022-09-17T05:30:36.411Z,10.71
2022-09-17T05:40:40.485Z,10.84
2022-09-17T05:50:43.223Z,11.10
2022-09-17T06:00:49.184Z,11.24
2022-09-17T06:10:52.024Z,11.41
2022-09-17T06:20:56.798Z,11.69
2022-09-17T06:31:02.116Z,11.57
2022-09-17T06:41:06.448Z,11.71
2022-09-17T06:51:12.039Z,12.11
2022-09-17T07:01:16.181Z,12.06
2022-09-17T07:11:19.004Z,12.37
2022-09-17T07:21:23.024Z,13.00
2022-09-17T07:31:25.787Z,13.32
2022-09-17T07:41:29.837Z,13.19
2022-09-17T07:51:32.567Z,13.71
2022-09-17T08:01:37.159Z,14.59
2022-09-17T08:11:56.699Z,14.65
2022-09-17T08:22:01.088Z,14.35
2022-09-17T08:32:04.284Z,14.92
2022-09-17T08:42:14.182Z,15.31
2022-09-17T08:52:58.134Z,15.31
2022-09-17T09:03:20.658Z,15.26
2022-09-17T09:13:26.043Z,14.64
2022-09-17T09:23:35.315Z,14.73
2022-09-17T09:33:43.319Z,16.06
2022-09-17T09:44:07.126Z,16.13
2022-09-17T09:54:25.552Z,16.05
2022-09-17T10:04:32.163Z,15.25
2022-09-17T10:14:36.994Z,15.11
2022-09-17T10:24:41.015Z,16.25
2022-09-17T10:34:57.982Z,15.36
2022-09-17T10:45:02.176Z,14.72
2022-09-17T10:55:22.207Z,15.85
2022-09-17T11:05:41.086Z,17.05
2022-09-17T11:15:56.369Z,18.12
2022-09-17T11:26:03.661Z,25.99
2022-09-17T11:36:14.837Z,23.89
2022-09-17T11:46:24.030Z,19.33
2022-09-17T11:56:30.977Z,15.55
2022-09-17T12:06:41.382Z,16.72
2022-09-17T12:16:47.211Z,25.64
2022-09-17T12:27:14.023Z,27.27
2022-09-17T12:37:24.318Z,28.21
2022-09-17T12:48:00.908Z,23.83
2022-09-17T12:58:13.893Z,20.68
2022-09-17T13:09:13.164Z,19.47
2022-09-17T13:19:27.746Z,18.87
2022-09-17T13:30:05.388Z,19.29
2022-09-17T13:40:22.162Z,18.17
2022-09-17T13:50:33.584Z,18.29
2022-09-17T14:00:51.915Z,17.82
2022-09-17T14:10:56.617Z,17.47
2022-09-17T14:21:12.489Z,17.61
2022-09-17T14:31:21.394Z,17.36
2022-09-17T14:41:26.830Z,17.14
2022-09-17T14:51:30.956Z,16.70
2022-09-17T15:01:33.726Z,16.92
2022-09-17T15:11:43.626Z,16.94
2022-09-17T15:21:50.446Z,16.61
2022-09-17T15:31:54.826Z,16.86
2022-09-17T15:41:58.241Z,16.54
2022-09-17T15:52:31.382Z,16.31
2022-09-17T16:02:34.172Z,15.96
2022-09-17T16:12:38.418Z,15.96
2022-09-17T16:22:41.155Z,15.99
2022-09-17T16:32:45.539Z,15.91
2022-09-17T16:42:48.814Z,15.91
2022-09-17T16:52:53.457Z,15.55
2022-09-17T17:02:57.745Z,15.15
2022-09-17T17:13:02.109Z,14.93
2022-09-17T17:23:04.858Z,14.67
2022-09-17T17:33:08.866Z,14.36
2022-09-17T17:43:11.761Z,14.21
2022-09-17T17:53:15.827Z,13.99
2022-09-17T18:03:18.572Z,13.91
2022-09-17T18:13:22.982Z,13.77
2022-09-17T18:23:25.666Z,13.66
2022-09-17T18:33:29.649Z,13.41
2022-09-17T18:43:33.989Z,13.23
2022-09-17T18:53:39.426Z,13.06
2022-09-17T19:03:42.180Z,12.96
2022-09-17T19:13:48.642Z,12.99
2022-09-17T19:23:52.671Z,12.82
2022-09-17T19:33:58.398Z,12.84
2022-09-17T19:44:01.044Z,12.93
2022-09-17T19:54:06.760Z,12.96
2022-09-17T20:04:09.622Z,12.91
2022-09-17T20:14:13.730Z,12.79
2022-09-17T20:24:16.390Z,12.74
2022-09-17T20:34:20.546Z,12.43
2022-09-17T20:44:23.257Z,11.97
2022-09-17T20:54:27.267Z,11.82
2022-09-17T21:04:29.952Z,11.74
2022-09-17T21:14:33.979Z,11.59
2022-09-17T21:24:36.653Z,11.46
2022-09-17T21:34:40.659Z,11.54
2022-09-17T21:44:43.580Z,11.74
2022-09-17T21:54:47.631Z,11.69
2022-09-17T22:04:50.308Z,11.68
2022-09-17T22:14:54.335Z,11.59
2022-09-17T22:24:57.025Z,11.87
2022-09-17T22:35:01.030Z,12.00
2022-09-17T22:45:03.943Z,12.15
2022-09-17T22:55:08.346Z,12.12
2022-09-17T23:05:11.000Z,11.85
2022-09-17T23:15:15.482Z,11.64
2022-09-17T23:25:18.302Z,11.51
2022-09-17T23:35:22.627Z,11.22
2022-09-17T23:45:25.347Z,11.19
2022-09-17T23:55:29.371Z,11.07
